Scottish Airport Reports

Civil airfields updated at H+20 and H+50
RAF airfields updated at H+50 only

EGPD - Aberdeen
Distance from station: NNE 19mi, 31km
Updated: 24/11/2017 01:20
Clear
Clear
 Wind from W
Wind: W 15 mph , 24 km/h
Temperature: 2°C
Wind Chill: -3°C
Dew Point: -3°C
Humidity: 70%
Barometer: 999 hPa
Clouds: Clear
Visibility: 6 miles , 10 km
2017/11/24 01:20 EGPD 240120Z AUTO 27013KT 9999 NCD 02/M03 Q0999 NOSIG
EGPN - Dundee
Distance from station: SW 41mi, 66km
Updated: 23/11/2017 21:20
NOT Current
Few Clouds
Few Clouds
 Wind from varies
Wind: varies 3 mph , 6 km/h
Temperature: 2°C
Dew Point: -1°C
Humidity: 81%
Barometer: 998 hPa
Clouds: Few Clouds
Visibility: 6 miles , 10 km
Cloud details: Few Clouds 4000 ft
2017/11/23 21:20 EGPN 232120Z VRB03KT 9999 FEW040 02/M01 Q0998
 
EGQS - RAF Lossiemouth
Distance from station: NNW 63mi, 102km
Updated: 24/11/2017 00:50
Mostly cloudy
Mostly cloudy
 Wind from WSW
Wind: WSW 15 mph , 24 km/h
Temperature: 2°C
Wind Chill: -3°C
Dew Point: 0°C
Humidity: 87%
Barometer: 998 hPa
Clouds: Mostly cloudy
Visibility: 6 miles , 10 km
Cloud details: Few Clouds 2000 ft
Mostly cloudy 7000 ft
2017/11/24 00:50 EGQS 240050Z 24013KT 9999 FEW020CB BKN070 02/00 Q0998 BLU
EGPE - Inverness
Distance from station: WNW 73mi, 117km
Updated: 24/11/2017 01:20
Clear
Clear
 Wind from SW
Wind: SW 14 mph , 22 km/h
Temperature: 1°C
Wind Chill: -4°C
Dew Point: 0°C
Humidity: 93%
Barometer: 1000 hPa
Clouds: Clear
Visibility: 6 miles , 10 km
2017/11/24 01:20 EGPE 240120Z AUTO 23012KT 9999 NCD 01/00 Q1000
 
EGPH - Edinburgh
Distance from station: SSW 77mi, 125km
Updated: 24/11/2017 01:20
Partly cloudy
Partly cloudy
 Wind from WSW
Wind: WSW 8 mph , 13 km/h
Temperature: 1°C
Wind Chill: -3°C
Dew Point: 0°C
Humidity: 93%
Barometer: 1002 hPa
Clouds: Partly cloudy
Visibility: 6 miles , 10 km
Cloud details: Partly cloudy 3300 ft
2017/11/24 01:20 EGPH 240120Z 24007KT 9999 SCT033 01/M00 Q1002
EGPC - Wick
Distance from station: NNW 107mi, 172km
Updated: 24/11/2017 01:20
Nearby showers, Few clouds
Nearby showers, Few clouds
 Wind from WSW
Wind: WSW 17 mph , 28 km/h
Temperature: 2°C
Wind Chill: -3°C
Dew Point: 0°C
Humidity: 87%
Barometer: 996 hPa
Summary: Nearby Showers
Clouds: Few Clouds
Visibility: 6 miles , 10 km
Cloud details: Few Clouds 1200 ft
2017/11/24 01:20 EGPC 240120Z 24015KT 9999 VCSH FEW012 02/00 Q0996
 
EGPF - Glasgow
Distance from station: SW 107mi, 172km
Updated: 24/11/2017 01:20
Clear
Clear
 Wind from varies
Wind: varies 3 mph , 6 km/h
Temperature: 2°C
Dew Point: 0°C
Humidity: 87%
Barometer: 1002 hPa
Clouds: Clear
Visibility: 6 miles , 10 km
2017/11/24 01:20 EGPF 240120Z AUTO VRB03KT 9999 NCD 02/M00 Q1002
EGPK - Prestwick
Distance from station: SW 130mi, 209km
Updated: 24/11/2017 00:50
Partly cloudy
Partly cloudy
 Wind from calm
Wind: Calm
Temperature: 3°C
Dew Point: 1°C
Humidity: 87%
Barometer: 1003 hPa
Clouds: Partly cloudy
Visibility: 6 miles , 10 km
Cloud details: Partly cloudy 2000 ft
Partly cloudy 3000 ft
2017/11/24 00:50 EGPK 240050Z 00000KT 9999 SCT020 SCT030 03/01 Q1003
 
EGPA - Kirkwall, Orkney
Distance from station: N 140mi, 225km
Updated: 24/11/2017 01:20
Clear
Clear
 Wind from W
Wind: W 23 mph , 37 km/h
Temperature: 4°C
Wind Chill: -2°C
Dew Point: 0°C
Humidity: 75%
Barometer: 994 hPa
Clouds: Clear
Visibility: 6 miles , 10 km
2017/11/24 01:20 EGPA 240120Z AUTO 28020KT 9999 NCD 04/M00 Q0994
EGPO - Stornoway, Outer Hebrides
Distance from station: WNW 169mi, 273km
Updated: 24/11/2017 01:20
Clear
Clear
 Wind from WSW
Wind: WSW 12 mph , 19 km/h
Temperature: 3°C
Wind Chill: -2°C
Dew Point: -1°C
Humidity: 75%
Barometer: 999 hPa
Clouds: Clear
Visibility: 6 miles , 10 km
2017/11/24 01:20 EGPO 240120Z AUTO 25010KT 9999 NCD 03/M01 Q0999
 
EGPI - Islay, Inner Hebrides
Distance from station: WSW 172mi, 276km
Updated: 24/11/2017 01:20
Light rain, Mostly cloudy
Light rain, Mostly cloudy
 Wind from NW
Wind: NW 22 mph , 35 km/h
Temperature: 4°C
Wind Chill: -2°C
Dew Point: 1°C
Humidity: 81%
Barometer: 1003 hPa
Summary: Light rain
Clouds: Mostly cloudy
Visibility: 6 miles , 10 km
Cloud details: Few Clouds 2500 ft
Mostly cloudy 4200 ft
2017/11/24 01:20 EGPI 240120Z AUTO 32019KT 9999 -RA FEW025/// BKN042/// 04/01 Q1003
EGPU - Tiree, Inner Hebrides
Distance from station: W 172mi, 276km
Updated: 24/11/2017 01:20
Few Clouds
Few Clouds
 Wind from WNW
Wind: WNW 6 mph , 9 km/h
Temperature: 2°C
Wind Chill: -1°C
Dew Point: 0°C
Humidity: 87%
Barometer: 1002 hPa
Clouds: Few Clouds
Visibility: 6 miles , 10 km
Cloud details: Few Clouds 1800 ft
2017/11/24 01:20 EGPU 240120Z AUTO 30005KT 9999 FEW018/// 02/00 Q1002 RERA
 
EGPB - Sumburgh, Shetland
Distance from station: NNE 208mi, 332km
Updated: 24/11/2017 01:20
Partly cloudy
Partly cloudy
 Wind from W
Wind: W 30 mph , 48 km/h, Gust: 41 mph , 67 km/h
Temperature: 5°C
Wind Chill: -1°C
Dew Point: 1°C
Humidity: 76%
Barometer: 988 hPa
Clouds: Partly cloudy
Visibility: 6 miles , 10 km
Cloud details: Few Clouds 1700 ft
Partly cloudy 2500 ft
2017/11/24 01:20 EGPB 240120Z AUTO 26026G36KT 9999 FEW017/// SCT025/// 05/01 Q0988
EGPM - Scatsa, Shetland
Distance from station: NNE 245mi, 392km
Updated: 24/11/2017 01:20
Mostly cloudy
Mostly cloudy
 Wind from W
Wind: W 35 mph , 56 km/h
Temperature: 4°C
Wind Chill: -3°C
Dew Point: 0°C
Humidity: 75%
Barometer: 986 hPa
Clouds: Mostly cloudy
Visibility: 6 miles , 10 km
Cloud details: Mostly cloudy 1700 ft
2017/11/24 01:20 EGPM 240120Z AUTO 26030KT 9999 BKN017/// 04/00 Q0986
-->